Aérodrome :
LOGIN :

S'inscrire | Disclaimer

   EN    FR    IT 

 










Légende :    VFR   VFR Marginal   IFR   IFR Intensif   IFR Très Intensif
Visi : 
Plafond : 
>= 8 km
>= 3000ft
5 à 8 km
1000 à 3000 ft
1500m à 5 km
500 à 1000 ft
800 à 1500m
200 à 500 ft
< 800m
< 200 ft
Symboles :   Orages  Brouillard  Fortes neiges  Fortes précipitations  Vent > 20 kt
SIGMETs :   Divers  Orages  Givrage  Turbulence  Onde Orograph.  Cendres Volcan.







- Altitude de l'aérodrome : 364 ft
- Voir les cartes d'approche


LFAQ - Albert Bray

DERNIER METAR :
  • 291100Z AUTO 16006KT CAVOK 13/02 Q1017 NOSIG

METARs EXPIRÉS :
  • 291030Z AUTO 18007KT 120V220 CAVOK 14/02 Q1017 NOSIG
  • 291000Z AUTO 15006KT 100V180 CAVOK 14/03 Q1017 NOSIG
  • 290930Z AUTO 15006KT 110V190 CAVOK 13/04 Q1017 NOSIG
  • 290900Z AUTO 16007KT 130V190 CAVOK 13/03 Q1017 NOSIG
  • 290830Z AUTO 15006KT 120V190 CAVOK 12/03 Q1018 NOSIG

TAF TAF LFAQ
Valide du 29 à 09h jusqu'au 29 à 18h UTC


290800Z 2909/2918 15010KT 9999 SCT040
Pas de NOTAMs connus pour ce terrain.



MET'MAP, la Météo Aéronautique d'un coup d'oeil ! - Copyright ORBIFLY Décembre 2007 - Disclaimer

ORBIFLY MET'MAP TEAM :

Programmation & Développement : Alexandra Zaïnal
Conception & Développement : Baudouin d'Aumeries
Co-Programmation & Développement : Marc-Olivier Méhu
Soutien technique & logistique : Manuel Goepfert

Contact : metmap@orbifly.com




SOURCES & CREDITS :

   NOAA